Time;durP1;ratioP1;P1;durP2;ratioP2;P2;SDS_P1;SDS_P2;PMS_P1;PMS_P2;Temp;Humidity;BMP_temperature;BMP_pressure;BME280_temperature;BME280_humidity;BME280_pressure;Samples;Min_cycle;Max_cycle;Signal;HPM_P1;HPM_P2
2021/12/09 00:00:07;;;;;;;11.05;4.82;;;2.80;99.90;;;;;;5103678;28;20089;-61
2021/12/09 00:02:34;;;;;;;9.63;5.15;;;2.80;99.90;;;;;;5100446;27;20076;-61
2021/12/09 00:04:59;;;;;;;12.68;6.18;;;2.70;99.90;;;;;;5134482;27;20389;-62
2021/12/09 00:07:25;;;;;;;11.70;5.43;;;2.80;99.90;;;;;;5101654;28;20036;-62
2021/12/09 00:09:51;;;;;;;11.02;5.70;;;2.90;99.90;;;;;;5098410;28;20040;-61
2021/12/09 00:12:17;;;;;;;10.38;5.72;;;2.80;99.90;;;;;;5096812;27;20386;-62
2021/12/09 00:14:43;;;;;;;14.85;5.60;;;2.80;99.90;;;;;;5092894;28;20135;-61
2021/12/09 00:17:10;;;;;;;12.77;5.50;;;2.80;99.90;;;;;;5097373;28;20051;-62
2021/12/09 00:19:38;;;;;;;9.32;5.55;;;2.80;99.90;;;;;;5097365;28;20052;-62
2021/12/09 00:22:06;;;;;;;13.32;5.70;;;2.80;99.90;;;;;;5097054;28;20449;-61
2021/12/09 00:24:34;;;;;;;12.55;6.20;;;2.80;99.90;;;;;;5095610;28;20112;-61
2021/12/09 00:27:00;;;;;;;13.70;5.93;;;2.80;99.90;;;;;;5115363;27;20040;-62
2021/12/09 00:29:26;;;;;;;14.77;6.35;;;2.80;99.90;;;;;;5098160;28;20485;-62
2021/12/09 00:31:52;;;;;;;11.95;5.93;;;2.80;99.90;;;;;;5096366;28;20040;-61
2021/12/09 00:34:20;;;;;;;7.60;5.30;;;2.80;99.90;;;;;;5097278;28;20046;-62
2021/12/09 00:36:57;;;;;;;9.50;5.68;;;2.70;99.90;;;;;;5095620;28;20120;-61
2021/12/09 00:39:23;;;;;;;10.63;6.07;;;2.90;99.90;;;;;;5097017;28;20063;-62
2021/12/09 00:41:49;;;;;;;13.93;6.47;;;2.70;99.90;;;;;;5097852;27;20118;-62
2021/12/09 00:44:15;;;;;;;14.57;6.55;;;2.70;99.90;;;;;;5098873;28;20122;-61
2021/12/09 00:46:41;;;;;;;11.40;6.20;;;2.70;99.90;;;;;;5095294;28;20036;-61
2021/12/09 00:49:07;;;;;;;17.45;6.93;;;2.70;99.90;;;;;;5100443;28;20036;-62
2021/12/09 00:51:33;;;;;;;14.07;8.63;;;2.60;99.90;;;;;;5097762;28;20557;-62
2021/12/09 00:53:58;;;;;;;13.63;6.68;;;2.60;99.90;;;;;;5130193;27;20057;-62
2021/12/09 00:56:24;;;;;;;15.18;6.38;;;2.70;99.90;;;;;;5099173;28;20042;-61
2021/12/09 00:58:50;;;;;;;11.43;5.65;;;2.70;99.90;;;;;;5097302;28;20821;-61
2021/12/09 01:01:17;;;;;;;10.15;6.28;;;2.60;99.90;;;;;;5129112;27;20569;-61
2021/12/09 01:03:43;;;;;;;14.68;6.90;;;2.60;99.90;;;;;;5098898;28;20032;-62
2021/12/09 01:06:10;;;;;;;10.55;6.30;;;2.60;99.90;;;;;;5095527;28;20162;-61
2021/12/09 01:08:36;;;;;;;12.38;6.63;;;2.60;99.90;;;;;;5094736;28;20043;-62
2021/12/09 01:11:04;;;;;;;12.93;6.30;;;2.50;99.90;;;;;;5095477;28;20044;-62
2021/12/09 01:13:30;;;;;;;12.52;6.25;;;2.50;99.90;;;;;;5092616;28;20047;-62
2021/12/09 01:15:56;;;;;;;9.90;6.15;;;2.50;99.90;;;;;;5097221;28;20043;-61
2021/12/09 01:18:22;;;;;;;11.77;6.10;;;2.50;99.90;;;;;;5097909;28;20126;-61
2021/12/09 01:20:49;;;;;;;10.38;5.82;;;2.50;99.90;;;;;;5095515;28;20040;-62
2021/12/09 01:23:14;;;;;;;13.48;6.38;;;2.40;99.90;;;;;;5096441;28;20042;-61
2021/12/09 01:25:40;;;;;;;15.15;7.13;;;2.40;99.90;;;;;;5096835;27;20039;-61
2021/12/09 01:28:09;;;;;;;13.48;7.35;;;2.40;99.90;;;;;;5098761;28;21565;-62
2021/12/09 01:30:36;;;;;;;12.98;6.00;;;2.40;99.90;;;;;;5097626;28;20040;-61
2021/12/09 01:33:02;;;;;;;16.30;7.53;;;2.30;99.90;;;;;;5096578;28;20135;-62
2021/12/09 01:35:33;;;;;;;14.02;7.38;;;2.30;99.90;;;;;;5128955;27;20044;-62
2021/12/09 01:38:08;;;;;;;11.38;7.43;;;2.40;99.90;;;;;;5099483;28;20092;-62
2021/12/09 01:40:34;;;;;;;12.95;7.53;;;2.30;99.90;;;;;;5098213;28;20092;-62
2021/12/09 01:43:00;;;;;;;15.32;7.45;;;2.40;99.90;;;;;;5097373;28;20060;-61
2021/12/09 01:45:26;;;;;;;13.32;6.70;;;2.30;99.90;;;;;;5096841;27;20456;-62
2021/12/09 01:47:52;;;;;;;18.48;7.72;;;2.30;99.90;;;;;;5096159;28;20046;-62
2021/12/09 01:50:19;;;;;;;13.63;8.05;;;2.30;99.90;;;;;;5129537;27;20044;-62
2021/12/09 01:52:44;;;;;;;14.07;7.53;;;2.30;99.90;;;;;;5127202;27;20124;-61
2021/12/09 01:55:14;;;;;;;17.55;7.60;;;2.30;99.90;;;;;;5112318;28;20392;-61
2021/12/09 01:57:40;;;;;;;15.45;7.75;;;2.30;99.90;;;;;;5097619;28;20044;-62
2021/12/09 02:00:11;;;;;;;12.15;7.40;;;2.30;99.90;;;;;;5096765;28;20378;-61
2021/12/09 02:02:38;;;;;;;13.05;6.75;;;2.30;99.90;;;;;;5096630;28;20037;-61
2021/12/09 02:05:04;;;;;;;12.50;7.35;;;2.30;99.90;;;;;;5097248;28;20043;-61
2021/12/09 02:07:30;;;;;;;10.60;7.30;;;2.30;99.90;;;;;;5096489;28;20493;-62
2021/12/09 02:09:56;;;;;;;14.68;7.32;;;2.30;99.90;;;;;;5096209;28;20130;-61
2021/12/09 02:12:21;;;;;;;14.13;7.80;;;2.30;99.90;;;;;;5098175;28;20050;-62
2021/12/09 02:14:47;;;;;;;17.52;8.43;;;2.30;99.90;;;;;;5093942;28;20046;-62
2021/12/09 02:17:13;;;;;;;15.38;8.77;;;2.20;99.90;;;;;;5095539;28;20093;-61
2021/12/09 02:19:44;;;;;;;11.23;7.25;;;2.30;99.90;;;;;;5099502;28;20040;-62
2021/12/09 02:22:16;;;;;;;12.70;7.85;;;2.20;99.90;;;;;;5096918;28;20055;-61
2021/12/09 02:24:42;;;;;;;16.38;8.40;;;2.50;99.90;;;;;;5129906;27;20096;-61
2021/12/09 02:27:08;;;;;;;14.63;7.47;;;2.30;99.90;;;;;;5104249;28;20036;-61
2021/12/09 02:29:34;;;;;;;11.13;7.93;;;2.20;99.90;;;;;;5105139;28;20039;-61
2021/12/09 02:32:01;;;;;;;18.42;9.05;;;2.30;99.90;;;;;;5106263;28;20488;-61
2021/12/09 02:34:28;;;;;;;17.15;8.43;;;2.20;99.90;;;;;;5101312;27;20040;-62
2021/12/09 02:36:54;;;;;;;18.88;8.32;;;2.30;99.90;;;;;;5106785;27;20039;-61
2021/12/09 02:39:20;;;;;;;13.25;9.10;;;2.20;99.90;;;;;;5100995;27;20480;-61
2021/12/09 02:41:47;;;;;;;14.00;7.30;;;2.30;99.90;;;;;;5105565;28;20032;-61
2021/12/09 02:44:17;;;;;;;15.05;8.48;;;2.20;99.90;;;;;;5101523;28;20409;-61
2021/12/09 02:46:43;;;;;;;16.25;8.13;;;2.30;99.90;;;;;;5103147;28;20514;-62
2021/12/09 02:49:16;;;;;;;19.55;9.13;;;2.30;99.90;;;;;;5104304;27;20044;-61
2021/12/09 02:51:42;;;;;;;20.50;8.68;;;2.20;99.90;;;;;;5132463;27;20212;-61
2021/12/09 02:54:11;;;;;;;17.10;8.93;;;2.20;99.90;;;;;;5098531;28;20036;-62
2021/12/09 02:56:38;;;;;;;20.65;9.10;;;2.20;99.90;;;;;;5104107;28;20115;-61
2021/12/09 02:59:05;;;;;;;14.50;7.82;;;2.20;99.90;;;;;;5105353;27;20115;-62
2021/12/09 03:01:34;;;;;;;15.52;8.63;;;2.20;99.90;;;;;;5102010;28;20075;-61
2021/12/09 03:04:02;;;;;;;17.67;9.15;;;2.10;99.90;;;;;;5101875;28;20072;-62
2021/12/09 03:06:32;;;;;;;18.50;8.48;;;2.30;99.90;;;;;;5104665;28;20035;-61
2021/12/09 03:09:01;;;;;;;13.98;8.77;;;2.10;99.90;;;;;;5103936;28;20377;-61
2021/12/09 03:11:27;;;;;;;16.48;9.35;;;2.10;99.90;;;;;;5104188;28;20401;-61
2021/12/09 03:13:53;;;;;;;21.50;9.57;;;2.10;99.90;;;;;;5102482;28;20133;-61
2021/12/09 03:16:25;;;;;;;14.95;8.50;;;2.30;99.90;;;;;;5106309;28;20047;-61
2021/12/09 03:18:57;;;;;;;17.80;8.88;;;2.10;99.90;;;;;;5102955;28;21098;-61
2021/12/09 03:21:37;;;;;;;16.83;8.77;;;2.10;99.90;;;;;;5102978;28;20126;-61
2021/12/09 03:24:09;;;;;;;17.38;9.02;;;2.10;99.90;;;;;;5100371;28;20032;-61
2021/12/09 03:26:39;;;;;;;15.63;8.32;;;2.10;99.90;;;;;;5104607;28;20036;-61
2021/12/09 03:29:07;;;;;;;13.88;8.93;;;2.10;99.90;;;;;;5104373;27;20063;-61
2021/12/09 03:31:33;;;;;;;22.50;8.93;;;2.10;99.90;;;;;;5105018;28;20058;-61
2021/12/09 03:33:59;;;;;;;17.63;8.95;;;2.00;99.90;;;;;;5105163;28;20036;-61
2021/12/09 03:36:28;;;;;;;16.55;8.35;;;2.00;99.90;;;;;;5102311;28;20396;-61
2021/12/09 03:38:59;;;;;;;17.33;8.88;;;2.00;99.90;;;;;;5105477;27;20067;-61
2021/12/09 03:41:25;;;;;;;20.58;9.80;;;2.10;99.90;;;;;;5138445;27;20097;-61
2021/12/09 03:43:51;;;;;;;16.42;9.13;;;2.00;99.90;;;;;;5087128;28;20470;-61
2021/12/09 03:46:18;;;;;;;15.98;8.82;;;1.90;99.90;;;;;;5104988;28;20490;-62
2021/12/09 03:48:43;;;;;;;16.17;8.02;;;2.00;99.90;;;;;;5106526;27;20043;-62
2021/12/09 03:51:09;;;;;;;21.83;9.18;;;1.90;99.90;;;;;;5103739;28;20096;-62
2021/12/09 03:53:35;;;;;;;18.15;9.05;;;1.90;99.90;;;;;;5099030;28;20044;-61
2021/12/09 03:56:00;;;;;;;14.27;8.20;;;1.90;99.90;;;;;;5102121;28;20122;-61
2021/12/09 03:58:26;;;;;;;15.75;9.88;;;1.90;99.90;;;;;;5103311;28;20554;-61
2021/12/09 04:00:52;;;;;;;15.63;10.05;;;1.90;99.90;;;;;;5104089;28;20039;-62
2021/12/09 04:03:18;;;;;;;17.63;9.15;;;1.90;99.90;;;;;;5133217;27;20040;-61
2021/12/09 04:05:48;;;;;;;17.33;9.05;;;1.90;99.90;;;;;;5100536;28;20048;-61
2021/12/09 04:08:15;;;;;;;21.02;10.13;;;1.80;99.90;;;;;;5102735;28;20533;-61
2021/12/09 04:10:41;;;;;;;15.93;9.65;;;1.80;99.90;;;;;;5103765;28;20035;-61
2021/12/09 04:13:06;;;;;;;14.00;8.57;;;1.90;99.90;;;;;;5101281;28;20556;-61
2021/12/09 04:15:32;;;;;;;17.10;9.80;;;1.80;99.90;;;;;;5100445;28;20126;-61
2021/12/09 04:17:58;;;;;;;16.35;10.13;;;1.80;99.90;;;;;;5103275;28;20388;-61
2021/12/09 04:20:25;;;;;;;12.80;9.15;;;1.80;99.90;;;;;;5104804;27;20105;-62
2021/12/09 04:22:51;;;;;;;15.15;9.18;;;1.80;99.90;;;;;;5101176;28;20039;-61
2021/12/09 04:25:20;;;;;;;14.02;9.13;;;1.80;99.90;;;;;;5103468;28;20156;-61
2021/12/09 04:27:47;;;;;;;20.42;9.93;;;1.80;99.90;;;;;;5134327;27;20533;-61
2021/12/09 04:30:14;;;;;;;25.60;10.88;;;1.80;99.90;;;;;;5103310;27;20048;-59
2021/12/09 04:32:40;;;;;;;16.30;10.02;;;1.80;99.90;;;;;;5100795;27;20123;-61
2021/12/09 04:35:08;;;;;;;16.52;10.20;;;1.80;99.90;;;;;;5102737;28;20078;-61
2021/12/09 04:37:33;;;;;;;18.98;9.93;;;1.70;99.90;;;;;;5101429;28;20043;-61
2021/12/09 04:40:00;;;;;;;15.10;9.40;;;1.70;99.90;;;;;;5104524;27;20044;-61
2021/12/09 04:42:26;;;;;;;20.27;9.40;;;1.70;99.90;;;;;;5133989;27;20075;-61
2021/12/09 04:44:52;;;;;;;19.67;9.80;;;1.70;99.90;;;;;;5101504;27;20024;-61
2021/12/09 04:47:18;;;;;;;18.20;10.10;;;1.70;99.90;;;;;;5102500;28;20036;-61
2021/12/09 04:49:43;;;;;;;15.05;9.52;;;1.60;99.90;;;;;;5101183;28;20047;-61
2021/12/09 04:52:09;;;;;;;15.98;9.82;;;1.60;99.90;;;;;;5101278;28;20050;-61
2021/12/09 04:54:36;;;;;;;15.57;10.60;;;1.60;99.90;;;;;;5101899;28;20114;-61
2021/12/09 04:57:04;;;;;;;16.13;10.25;;;1.70;99.90;;;;;;5099595;28;20130;-61
2021/12/09 04:59:29;;;;;;;17.67;9.98;;;1.60;99.90;;;;;;5121957;27;20405;-61
2021/12/09 05:01:56;;;;;;;18.92;11.45;;;1.70;99.90;;;;;;5104902;28;20039;-61
2021/12/09 05:04:21;;;;;;;21.95;10.10;;;1.70;99.90;;;;;;5097900;28;20358;-61
2021/12/09 05:06:47;;;;;;;16.80;10.52;;;1.60;99.90;;;;;;5099218;28;20038;-61
2021/12/09 05:09:17;;;;;;;15.40;9.88;;;1.70;99.90;;;;;;5102128;28;20096;-61
2021/12/09 05:14:08;;;;;;;20.60;10.98;;;1.70;99.90;;;;;;5131831;27;20040;-61
2021/12/09 05:16:34;;;;;;;19.05;9.88;;;1.70;99.90;;;;;;5102051;28;20070;-61
2021/12/09 05:19:00;;;;;;;17.98;10.25;;;1.70;99.90;;;;;;5100015;28;20515;-61
2021/12/09 05:21:37;;;;;;;19.35;9.95;;;1.70;99.90;;;;;;5097220;28;20032;-61
2021/12/09 05:24:14;;;;;;;17.13;10.60;;;1.70;99.90;;;;;;5096053;28;20043;-62
2021/12/09 05:26:46;;;;;;;15.85;10.02;;;1.70;99.90;;;;;;5113324;27;20071;-61
2021/12/09 05:29:13;;;;;;;17.65;10.07;;;1.70;99.90;;;;;;5095738;28;20036;-61
2021/12/09 05:34:24;;;;;;;14.63;9.43;;;1.70;99.90;;;;;;5096045;28;20834;-61
2021/12/09 05:36:50;;;;;;;20.20;10.63;;;1.60;99.90;;;;;;5130333;27;20047;-61
2021/12/09 05:39:16;;;;;;;19.02;10.77;;;1.60;99.90;;;;;;5098811;28;20409;-61
2021/12/09 05:41:43;;;;;;;16.52;9.75;;;1.60;99.90;;;;;;5098379;28;20047;-61
2021/12/09 05:44:10;;;;;;;18.10;10.50;;;1.60;99.90;;;;;;5095798;28;20498;-61
2021/12/09 05:46:39;;;;;;;20.20;11.20;;;1.60;99.90;;;;;;5078120;28;20027;-61
2021/12/09 05:49:05;;;;;;;21.95;11.68;;;1.70;99.90;;;;;;5129065;27;20036;-61
2021/12/09 05:51:32;;;;;;;15.05;10.02;;;1.60;99.90;;;;;;5096652;27;20048;-61
2021/12/09 05:53:57;;;;;;;22.50;11.48;;;1.70;99.90;;;;;;5096663;28;20044;-61
2021/12/09 05:56:23;;;;;;;18.23;10.30;;;1.70;99.90;;;;;;5095859;28;20468;-61
2021/12/09 05:58:49;;;;;;;17.73;10.77;;;1.70;99.90;;;;;;5093867;28;20554;-61
2021/12/09 06:01:14;;;;;;;16.60;11.02;;;1.60;99.90;;;;;;5101366;28;20040;-61
2021/12/09 06:03:41;;;;;;;17.55;11.05;;;1.70;99.90;;;;;;5099816;28;20031;-61
2021/12/09 06:06:08;;;;;;;16.15;10.27;;;1.60;99.90;;;;;;5104249;28;20393;-61
2021/12/09 06:08:36;;;;;;;19.73;10.88;;;1.60;99.90;;;;;;5099627;28;20464;-61
2021/12/09 06:11:04;;;;;;;23.85;11.65;;;1.60;99.90;;;;;;5100180;28;20389;-61
2021/12/09 06:13:32;;;;;;;20.70;11.13;;;1.50;99.90;;;;;;5097411;28;20188;-61
2021/12/09 06:15:58;;;;;;;25.15;11.18;;;1.50;99.90;;;;;;5086276;28;20493;-61
2021/12/09 06:18:24;;;;;;;20.95;10.80;;;1.50;99.90;;;;;;5101738;27;20039;-61
2021/12/09 06:20:50;;;;;;;25.58;10.55;;;1.50;99.90;;;;;;5116741;27;20409;-61
2021/12/09 06:23:16;;;;;;;20.02;10.85;;;1.50;99.90;;;;;;5099761;28;20075;-61
2021/12/09 06:25:42;;;;;;;19.40;12.10;;;1.50;99.90;;;;;;5102484;28;20062;-61
2021/12/09 06:28:08;;;;;;;15.43;11.10;;;1.60;99.90;;;;;;5115698;27;20031;-61
2021/12/09 06:30:33;;;;;;;18.75;10.75;;;1.50;99.90;;;;;;5104148;27;20098;-61
2021/12/09 06:32:59;;;;;;;23.08;10.90;;;1.50;99.90;;;;;;5100291;27;20126;-61
2021/12/09 06:35:27;;;;;;;19.60;10.80;;;1.50;99.90;;;;;;5098571;28;20204;-61
2021/12/09 06:37:54;;;;;;;17.90;10.27;;;1.50;99.90;;;;;;5101135;27;20044;-61
2021/12/09 06:40:22;;;;;;;18.77;10.80;;;1.50;99.90;;;;;;5100176;28;20047;-61
2021/12/09 06:42:50;;;;;;;21.80;10.38;;;1.50;99.90;;;;;;5099723;28;21402;-61
2021/12/09 06:45:18;;;;;;;21.50;11.60;;;1.60;99.90;;;;;;5099530;28;20048;-61
2021/12/09 06:47:44;;;;;;;25.60;11.80;;;1.40;99.90;;;;;;5100609;27;20050;-61
2021/12/09 06:50:12;;;;;;;18.98;11.40;;;1.40;99.90;;;;;;5102803;28;20086;-61
2021/12/09 06:52:37;;;;;;;18.15;10.45;;;1.40;99.90;;;;;;5099041;28;20058;-61
2021/12/09 06:55:05;;;;;;;20.75;11.13;;;1.40;99.90;;;;;;5101985;27;20043;-61
2021/12/09 06:57:30;;;;;;;23.55;10.70;;;1.40;99.90;;;;;;5100043;28;20130;-61
2021/12/09 06:59:56;;;;;;;23.83;10.82;;;1.40;99.90;;;;;;5099183;28;20048;-61
2021/12/09 07:02:22;;;;;;;22.30;10.73;;;1.40;99.90;;;;;;5099488;28;20042;-61
2021/12/09 07:04:48;;;;;;;23.23;10.57;;;1.40;99.90;;;;;;5096902;27;20089;-61
2021/12/09 07:07:13;;;;;;;22.45;10.45;;;1.40;99.90;;;;;;5100718;28;20043;-61
2021/12/09 07:09:40;;;;;;;17.05;10.93;;;1.40;99.90;;;;;;5101230;28;20044;-61
2021/12/09 07:12:06;;;;;;;25.27;11.20;;;1.40;99.90;;;;;;5132918;27;20036;-61
2021/12/09 07:14:32;;;;;;;18.05;9.25;;;1.40;99.90;;;;;;5098125;28;20043;-61
2021/12/09 07:16:58;;;;;;;29.15;11.95;;;1.40;99.90;;;;;;5101134;28;20027;-61
2021/12/09 07:19:23;;;;;;;18.88;10.52;;;1.40;99.90;;;;;;5100932;28;20122;-61
2021/12/09 07:21:49;;;;;;;23.80;10.40;;;1.40;99.90;;;;;;5134146;27;20503;-61
2021/12/09 07:24:15;;;;;;;21.48;11.35;;;1.40;99.90;;;;;;5097799;27;20126;-61
2021/12/09 07:26:41;;;;;;;20.60;10.38;;;1.40;99.90;;;;;;5132642;27;21140;-61
2021/12/09 07:29:06;;;;;;;24.90;10.45;;;1.40;99.90;;;;;;5086111;28;20036;-61
2021/12/09 07:31:32;;;;;;;16.65;9.82;;;1.30;99.90;;;;;;5099491;28;20050;-61
2021/12/09 07:34:00;;;;;;;21.85;10.07;;;1.30;99.90;;;;;;5096646;27;21041;-61
2021/12/09 07:36:26;;;;;;;20.23;9.15;;;1.40;99.90;;;;;;5093993;28;20059;-61
2021/12/09 07:38:52;;;;;;;15.95;9.63;;;1.40;99.90;;;;;;5096205;28;20048;-61
2021/12/09 07:41:18;;;;;;;16.80;9.85;;;1.30;99.90;;;;;;5093768;28;20052;-61
2021/12/09 07:43:45;;;;;;;18.25;9.57;;;1.30;99.90;;;;;;5126836;27;20043;-61
2021/12/09 07:46:11;;;;;;;18.13;9.73;;;1.30;99.90;;;;;;5130366;27;20109;-61
2021/12/09 07:48:37;;;;;;;21.02;8.95;;;1.30;99.90;;;;;;5096021;28;20044;-61
2021/12/09 07:51:04;;;;;;;21.27;10.20;;;1.30;99.90;;;;;;5096740;28;20035;-61
2021/12/09 07:53:29;;;;;;;22.75;9.90;;;1.40;99.90;;;;;;5093111;28;20668;-61
2021/12/09 07:55:55;;;;;;;16.75;9.48;;;1.30;99.90;;;;;;5097908;28;20047;-61
2021/12/09 07:58:22;;;;;;;20.33;10.10;;;1.30;99.90;;;;;;5095833;28;20091;-61
2021/12/09 08:00:48;;;;;;;19.27;10.00;;;1.40;99.90;;;;;;5094514;28;20047;-61
2021/12/09 08:03:14;;;;;;;14.98;9.00;;;1.30;99.90;;;;;;5093998;27;20139;-61
2021/12/09 08:05:44;;;;;;;18.88;9.48;;;1.30;99.90;;;;;;5098734;27;20072;-61
2021/12/09 08:08:10;;;;;;;17.75;9.50;;;1.30;99.90;;;;;;5096807;28;20155;-61
2021/12/09 08:10:36;;;;;;;21.30;11.40;;;1.30;99.90;;;;;;5095091;27;20036;-61
2021/12/09 08:13:03;;;;;;;19.63;10.48;;;1.30;99.90;;;;;;5091963;28;21313;-61
2021/12/09 08:15:33;;;;;;;16.90;10.68;;;1.20;99.90;;;;;;5098782;28;20133;-61
2021/12/09 08:18:14;;;;;;;18.80;11.95;;;1.20;99.90;;;;;;5095529;28;20093;-61
2021/12/09 08:20:40;;;;;;;22.10;11.95;;;1.20;99.90;;;;;;5096149;28;20048;-61
2021/12/09 08:23:06;;;;;;;21.55;9.93;;;1.10;99.90;;;;;;5091905;28;20064;-61
2021/12/09 08:25:31;;;;;;;19.88;10.02;;;1.20;99.90;;;;;;5095941;27;20062;-62
2021/12/09 08:27:57;;;;;;;20.42;9.75;;;1.20;99.90;;;;;;5099729;27;20059;-61
2021/12/09 08:30:25;;;;;;;20.30;9.70;;;1.20;99.90;;;;;;5096988;27;20094;-61
2021/12/09 08:32:52;;;;;;;16.25;9.73;;;1.30;99.90;;;;;;5078056;28;20045;-61
2021/12/09 08:35:19;;;;;;;15.52;9.70;;;1.30;99.90;;;;;;5097606;28;20522;-61
2021/12/09 08:37:45;;;;;;;19.38;10.15;;;1.50;99.90;;;;;;5099396;28;20050;-61
2021/12/09 08:40:15;;;;;;;19.50;10.23;;;1.40;99.90;;;;;;5100199;28;20048;-61
2021/12/09 08:42:41;;;;;;;18.10;10.40;;;1.40;99.90;;;;;;5094196;28;20036;-61
2021/12/09 08:45:10;;;;;;;18.27;9.15;;;1.40;99.90;;;;;;5096587;28;20027;-61
2021/12/09 08:47:39;;;;;;;21.70;10.68;;;1.50;99.90;;;;;;5093749;28;20901;-61
2021/12/09 08:50:08;;;;;;;18.23;9.18;;;1.50;99.90;;;;;;5094871;27;20088;-61
2021/12/09 08:52:35;;;;;;;22.40;9.90;;;1.50;99.90;;;;;;5096727;27;20224;-61
2021/12/09 08:55:03;;;;;;;16.98;10.13;;;1.60;99.90;;;;;;5095872;27;20047;-61
2021/12/09 08:57:31;;;;;;;17.08;8.90;;;1.60;99.90;;;;;;5098874;27;20837;-61
2021/12/09 08:59:57;;;;;;;16.08;8.52;;;1.70;99.90;;;;;;5098386;28;20073;-61
2021/12/09 09:02:23;;;;;;;21.60;10.05;;;1.70;99.90;;;;;;5096377;27;20039;-61
2021/12/09 09:04:49;;;;;;;18.83;9.82;;;1.70;99.90;;;;;;5093790;28;20035;-61
2021/12/09 09:07:14;;;;;;;18.55;9.23;;;1.70;99.90;;;;;;5096379;28;20043;-62
2021/12/09 09:09:41;;;;;;;17.58;8.75;;;1.80;99.90;;;;;;5096864;28;20151;-61
2021/12/09 09:12:10;;;;;;;22.45;8.63;;;1.80;99.90;;;;;;5128029;27;20093;-61
2021/12/09 09:14:36;;;;;;;16.77;7.65;;;1.80;99.90;;;;;;5128910;27;20060;-61
2021/12/09 09:17:03;;;;;;;23.05;9.25;;;1.90;99.90;;;;;;5092817;27;20059;-61
2021/12/09 09:19:29;;;;;;;17.23;8.18;;;1.90;99.90;;;;;;5093991;28;20050;-61
2021/12/09 09:21:56;;;;;;;19.58;8.52;;;1.90;99.90;;;;;;5094037;28;20205;-61
2021/12/09 09:24:22;;;;;;;15.15;8.13;;;2.00;99.90;;;;;;5093210;28;20768;-61
2021/12/09 09:26:48;;;;;;;21.83;7.82;;;2.00;99.90;;;;;;5097677;27;20036;-61
2021/12/09 09:29:13;;;;;;;15.27;7.63;;;2.00;99.90;;;;;;5097302;28;20032;-61
2021/12/09 09:31:41;;;;;;;15.43;8.07;;;2.10;99.90;;;;;;5095128;28;20470;-61
2021/12/09 09:34:07;;;;;;;14.13;7.45;;;2.10;99.90;;;;;;5094087;28;20047;-61
2021/12/09 09:36:51;;;;;;;16.15;8.00;;;2.10;99.90;;;;;;5096840;28;20032;-61
2021/12/09 09:39:18;;;;;;;14.82;6.72;;;2.20;99.90;;;;;;5098293;28;20541;-61
2021/12/09 09:41:53;;;;;;;17.33;6.93;;;2.30;99.90;;;;;;5093723;28;20104;-61
2021/12/09 09:44:22;;;;;;;17.02;6.47;;;2.30;99.90;;;;;;5093507;28;20911;-61
2021/12/09 09:46:50;;;;;;;16.77;6.72;;;2.30;99.90;;;;;;5092748;28;20040;-61
2021/12/09 09:49:15;;;;;;;14.77;6.75;;;2.30;99.90;;;;;;5094003;27;20396;-61
2021/12/09 09:51:41;;;;;;;12.98;7.10;;;2.40;99.90;;;;;;5094846;28;20046;-61
2021/12/09 09:54:09;;;;;;;14.80;6.53;;;2.50;99.90;;;;;;5092628;28;20051;-61
2021/12/09 09:56:40;;;;;;;13.50;6.80;;;2.60;99.90;;;;;;5126375;27;20055;-61
2021/12/09 09:59:08;;;;;;;13.77;6.43;;;2.50;99.90;;;;;;5094432;28;20126;-61
2021/12/09 10:01:37;;;;;;;14.68;6.60;;;2.60;99.90;;;;;;5095562;28;20101;-61
2021/12/09 10:04:12;;;;;;;18.23;6.78;;;2.70;99.90;;;;;;5096229;28;20035;-61
2021/12/09 10:06:41;;;;;;;13.50;5.78;;;2.70;99.90;;;;;;5092593;28;20058;-61
2021/12/09 10:09:08;;;;;;;13.15;6.57;;;2.90;99.90;;;;;;5095194;28;20046;-61
2021/12/09 10:11:35;;;;;;;13.88;5.50;;;3.00;99.90;;;;;;5095346;28;20127;-61
2021/12/09 10:14:17;;;;;;;12.80;4.90;;;3.10;99.90;;;;;;5092345;28;20043;-61
2021/12/09 10:16:45;;;;;;;9.77;5.40;;;3.20;99.90;;;;;;5093576;28;20177;-61
2021/12/09 10:19:29;;;;;;;11.85;5.20;;;3.30;99.90;;;;;;5095689;28;20040;-61
2021/12/09 10:22:16;;;;;;;12.32;4.80;;;3.40;99.90;;;;;;5098157;28;20035;-61
2021/12/09 10:24:43;;;;;;;11.77;5.65;;;3.40;99.90;;;;;;5094662;28;20032;-61
2021/12/09 10:27:22;;;;;;;14.05;6.05;;;3.40;99.90;;;;;;5092306;28;20926;-61
2021/12/09 10:29:48;;;;;;;12.63;5.40;;;3.30;99.90;;;;;;5107394;28;20038;-61
2021/12/09 10:32:22;;;;;;;14.65;5.65;;;3.30;99.90;;;;;;5096626;28;20085;-61
2021/12/09 10:34:49;;;;;;;15.25;6.30;;;3.30;99.90;;;;;;5095695;28;20836;-61
2021/12/09 10:37:20;;;;;;;15.73;5.78;;;3.30;99.90;;;;;;5095459;28;20043;-61
2021/12/09 10:40:07;;;;;;;15.90;6.05;;;3.20;99.90;;;;;;5094973;28;20092;-61
2021/12/09 10:42:37;;;;;;;13.55;5.80;;;3.10;99.90;;;;;;5078455;28;20177;-61
2021/12/09 10:45:21;;;;;;;13.82;6.50;;;3.10;99.90;;;;;;5095252;28;20031;-61
2021/12/09 10:48:01;;;;;;;11.65;6.70;;;3.10;99.90;;;;;;5098615;27;20126;-61
2021/12/09 10:50:38;;;;;;;14.93;6.28;;;3.10;99.90;;;;;;5098401;28;20442;-61
2021/12/09 10:55:53;;;;;;;24.05;7.43;;;3.10;99.90;;;;;;5096990;28;20067;-61
2021/12/09 10:58:25;;;;;;;23.42;8.27;;;3.10;99.90;;;;;;5098209;28;20054;-61
2021/12/09 11:00:59;;;;;;;15.82;7.45;;;3.00;99.90;;;;;;5098794;28;20040;-61
2021/12/09 11:03:37;;;;;;;18.73;7.78;;;3.10;99.90;;;;;;5098206;27;20036;-61
2021/12/09 11:06:14;;;;;;;21.63;8.02;;;3.10;99.90;;;;;;5098783;28;20090;-61
2021/12/09 11:08:45;;;;;;;17.95;8.02;;;3.10;99.90;;;;;;5097193;28;20400;-61
2021/12/09 11:11:18;;;;;;;21.30;8.55;;;3.10;99.90;;;;;;5096213;28;20039;-61
2021/12/09 11:13:46;;;;;;;21.00;8.48;;;3.10;99.90;;;;;;5096873;28;20054;-61
2021/12/09 11:16:22;;;;;;;20.08;7.97;;;3.20;99.90;;;;;;5099883;28;20075;-61
2021/12/09 11:18:57;;;;;;;15.40;7.57;;;3.20;99.90;;;;;;5129449;27;20044;-61
2021/12/09 11:21:29;;;;;;;16.95;7.43;;;3.20;99.90;;;;;;5129468;27;20054;-61
2021/12/09 11:24:03;;;;;;;15.38;7.60;;;3.20;99.90;;;;;;5129721;27;20142;-61
2021/12/09 11:26:40;;;;;;;21.90;8.40;;;3.30;99.90;;;;;;5094723;28;20455;-61
2021/12/09 11:29:16;;;;;;;17.77;7.03;;;3.30;99.90;;;;;;5095290;27;20040;-61
2021/12/09 11:31:46;;;;;;;16.65;7.55;;;3.30;99.90;;;;;;5095154;28;20047;-61
2021/12/09 11:34:17;;;;;;;15.65;7.57;;;3.40;99.90;;;;;;5096578;27;20498;-61
2021/12/09 11:36:57;;;;;;;18.92;8.77;;;3.40;99.90;;;;;;5099892;28;20055;-61
2021/12/09 11:39:33;;;;;;;17.88;7.43;;;3.40;99.90;;;;;;5100428;27;20054;-61
2021/12/09 11:42:28;;;;;;;15.55;7.28;;;3.40;99.90;;;;;;5103654;28;20122;-61
2021/12/09 11:44:54;;;;;;;16.20;7.65;;;3.40;99.90;;;;;;5096251;28;20057;-61
2021/12/09 11:47:20;;;;;;;20.67;8.13;;;3.40;99.90;;;;;;5099002;28;20039;-61
2021/12/09 11:49:47;;;;;;;20.58;9.00;;;3.40;99.90;;;;;;5101593;28;20040;-61
2021/12/09 11:52:16;;;;;;;15.90;8.90;;;3.40;99.90;;;;;;5102029;28;20079;-61
2021/12/09 11:54:50;;;;;;;17.85;8.95;;;3.40;99.90;;;;;;5078764;28;20036;-61
2021/12/09 11:57:32;;;;;;;20.83;9.40;;;3.40;99.90;;;;;;5131003;27;20485;-61
2021/12/09 12:12:39;;;;;;;25.23;11.77;;;3.40;99.90;;;;;;5100852;28;20536;-61
2021/12/09 12:18:50;;;;;;;21.60;10.00;;;3.40;99.90;;;;;;5101380;28;20048;-61
2021/12/09 12:24:06;;;;;;;23.23;10.68;;;3.40;99.90;;;;;;5098695;28;20097;-61
2021/12/09 12:38:09;;;;;;;28.25;13.45;;;3.50;99.90;;;;;;5102094;28;20047;-61
2021/12/09 12:40:38;;;;;;;23.15;11.80;;;3.50;99.90;;;;;;5132100;27;20048;-61
2021/12/09 12:43:10;;;;;;;25.98;12.02;;;3.60;99.90;;;;;;5100520;28;20537;-61
2021/12/09 12:51:07;;;;;;;25.00;11.73;;;3.50;99.90;;;;;;5098401;28;20134;-61
2021/12/09 12:53:42;;;;;;;24.85;12.50;;;3.60;99.90;;;;;;5132610;27;20055;-61
2021/12/09 12:56:13;;;;;;;23.17;13.07;;;3.60;99.90;;;;;;5103175;28;20043;-61
2021/12/09 12:59:11;;;;;;;19.83;12.15;;;3.60;99.90;;;;;;5134736;27;20046;-61
2021/12/09 13:01:43;;;;;;;24.30;12.65;;;3.60;99.90;;;;;;5077476;27;20079;-61
2021/12/09 13:04:39;;;;;;;18.75;11.45;;;3.60;99.90;;;;;;5133583;27;20130;-61
2021/12/09 13:10:18;;;;;;;25.65;14.23;;;3.60;99.90;;;;;;5098628;28;20504;-61
2021/12/09 13:12:54;;;;;;;26.95;13.80;;;3.60;99.90;;;;;;5100005;28;20516;-61
2021/12/09 13:15:25;;;;;;;23.60;12.93;;;3.70;99.90;;;;;;5099244;28;20130;-61
2021/12/09 13:18:04;;;;;;;27.38;13.90;;;3.60;99.90;;;;;;5100292;28;20404;-62
2021/12/09 13:20:37;;;;;;;25.98;13.98;;;3.70;99.90;;;;;;5097927;27;21573;-61
2021/12/09 13:23:27;;;;;;;27.60;14.55;;;3.70;99.90;;;;;;5099587;28;20408;-61
2021/12/09 13:26:22;;;;;;;24.73;14.52;;;3.80;99.90;;;;;;5099731;28;20035;-61
2021/12/09 13:28:58;;;;;;;23.02;13.38;;;3.80;99.90;;;;;;5099430;28;20043;-61
2021/12/09 13:31:54;;;;;;;27.42;14.02;;;3.80;99.90;;;;;;5098687;28;20100;-61
2021/12/09 13:34:37;;;;;;;26.25;13.88;;;3.80;99.90;;;;;;5098986;28;20108;-61
2021/12/09 13:37:35;;;;;;;26.30;14.63;;;3.90;99.90;;;;;;5133724;27;20092;-61